METAR és
SPECI
METAR LHBP 300430Z 05007KT 4500 BR SCT002 BKN110 19/19 Q1009 BECMG 6000 NSW=
METAR LHBP 300400Z 05009KT 4000 BR BKN001 19/19 Q1009 BECMG 5000 BR BKN003=
METAR LHBP 300330Z 05008KT 3500 BR BKN001 19/19 Q1009 NOSIG=
METAR LHBP 300300Z 05007KT 020V080 5000 BR NSC 19/19 Q1009 NOSIG=
METAR LHBP 300230Z 06005KT 040V100 5000 BR NSC 19/19 Q1009 NOSIG=
METAR LHBP 300200Z 07004KT 5000 BR NSC 19/19 Q1009 NOSIG=
TAF
TAF AMD LHBP 300300Z 3003/3024 06008KT 3000 BR BKN001 BECMG 3004/3007 8000 NSW SCT010 BKN080 BECMG 3007/3010 12008KT 9999 SCT030 SCT100 TEMPO 3013/3024 VRB15G28KT 3000 SHRA TSRA BKN020CB=
GAMET
FAHU41 LHBM 300500
LHCC GAMET VALID 300600/301200 LHBP-
BUDAPEST FIR BLW FL100
SECN I
SFC VIS: 06/07 3000-5000M BR
SIGWX: 10/12 ISOL TSRA
SIG CLD: 10/12 ISOL BKN CB TCU 2500-3000/XXX FT AGL
SIGMETS APPLICABLE: NIL=
OMSZ: 2014. július 30. 06:36 (04:36  UTC)
[FAHU41]
AIRMET
Nincs érvényes távirat! 
WAHU41 LHBM 050800
LHCC AIRMET 01 VALID 050800/051000 LHBP-
LHCC BUDAPEST FIR EMBD TS OBS AT 0755Z N4730 E01648
AND FCST W OF E01800 TOP FL250 MOV ENE NC=
SIGMET
Nincs érvényes távirat! 
WSHU31 LHBM 291515
LHCC SIGMET 03 VALID 291515/291645 LHBP-
LHCC BUDAPEST FIR SQL TS OBS IN LINE N4825 E02145 -
N4707 E02110 TOP FL320-340 STNR WKN AND SQL TS OBS IN LINE
N4745 E01850 - N4650 E01948 TOP FL 320-340 MOV ENE SLW WKN=
SIGMET
Vulkáni hamufelhő
Nincs érvényes távirat! 
WVHU31 LHBM 271515 CCA
LHCC SIGMET 03 VALID 271515/271800 LHBP-
LHCC BUDAPEST FIR EXERCISE VOLCEX12/01
CNL VA SIGMET 02 271200/271800
EXERCISE EXERCISE EXERCISE VOLCEX12/01=